createdAt,value
2018-03-03T00:00:01.958Z,1.6
2018-03-03T00:01:02.239Z,1.53
2018-03-03T00:02:01.971Z,1.55
2018-03-03T00:03:01.981Z,1.59
2018-03-03T00:04:02.258Z,1.58
2018-03-03T00:05:01.701Z,1.58
2018-03-03T00:06:02.281Z,1.58
2018-03-03T00:07:02.280Z,1.52
2018-03-03T00:08:02.014Z,1.52
2018-03-03T00:09:02.014Z,1.48
2018-03-03T00:10:02.019Z,1.53
2018-03-03T00:11:02.309Z,1.45
2018-03-03T00:12:02.036Z,1.55
2018-03-03T00:13:02.057Z,1.45
2018-03-03T00:14:02.337Z,1.52
2018-03-03T00:15:02.353Z,1.48
2018-03-03T00:16:02.071Z,1.42
2018-03-03T00:17:01.791Z,1.48
2018-03-03T00:18:02.363Z,1.49
2018-03-03T00:19:02.370Z,1.38
2018-03-03T00:20:02.384Z,1.42
2018-03-03T00:21:02.104Z,1.35
2018-03-03T00:22:02.391Z,1.34
2018-03-03T00:23:02.400Z,1.35
2018-03-03T00:24:01.840Z,1.37
2018-03-03T00:25:02.417Z,1.4
2018-03-03T00:26:02.458Z,1.4
2018-03-03T00:27:02.428Z,1.37
2018-03-03T00:28:02.434Z,1.3
2018-03-03T00:29:02.166Z,1.26
2018-03-03T00:30:02.171Z,1.4
2018-03-03T00:31:02.460Z,1.37
2018-03-03T00:32:02.463Z,1.24
2018-03-03T00:33:02.471Z,1.32
2018-03-03T00:34:02.493Z,1.22
2018-03-03T00:35:02.505Z,1.23
2018-03-03T00:36:02.511Z,1.22
2018-03-03T00:37:02.502Z,1.31
2018-03-03T00:38:02.512Z,1.3
2018-03-03T00:39:02.524Z,1.19
2018-03-03T00:40:02.522Z,1.24
2018-03-03T00:41:02.532Z,1.28
2018-03-03T00:42:02.540Z,1.19
2018-03-03T00:43:02.262Z,1.22
2018-03-03T00:44:02.553Z,1.2
2018-03-03T00:45:01.995Z,1.24
2018-03-03T00:46:02.565Z,1.31
2018-03-03T00:47:02.570Z,1.19
2018-03-03T00:48:02.295Z,1.19
2018-03-03T00:49:02.586Z,1.17
2018-03-03T00:50:02.329Z,1.14
2018-03-03T00:51:02.317Z,1.12
2018-03-03T00:52:02.612Z,1.14
2018-03-03T00:53:02.615Z,1.16
2018-03-03T00:54:02.347Z,1.13
2018-03-03T00:55:02.632Z,1.05
2018-03-03T00:56:02.071Z,1.06
2018-03-03T00:57:02.359Z,1.02
2018-03-03T00:58:02.649Z,1.1
2018-03-03T00:59:02.655Z,1.04
2018-03-03T01:00:02.667Z,1.02
2018-03-03T01:01:02.111Z,1.02
2018-03-03T01:02:02.447Z,1.05
2018-03-03T01:03:02.407Z,1.01
2018-03-03T01:04:02.142Z,1.01
2018-03-03T01:05:02.133Z,1.05
2018-03-03T01:06:02.425Z,1.01
2018-03-03T01:07:02.434Z,1.04
2018-03-03T01:08:02.438Z,0.96
2018-03-03T01:09:02.445Z,0.95
2018-03-03T01:10:02.748Z,1.04
2018-03-03T01:11:02.747Z,0.96
2018-03-03T01:12:02.528Z,1.01
2018-03-03T01:13:02.478Z,0.96
2018-03-03T01:14:02.766Z,0.88
2018-03-03T01:15:02.502Z,0.96
2018-03-03T01:16:02.784Z,0.87
2018-03-03T01:17:02.836Z,0.92
2018-03-03T01:18:02.567Z,0.96
2018-03-03T01:19:02.565Z,0.96
2018-03-03T01:20:02.810Z,0.96
2018-03-03T01:21:02.267Z,0.87
2018-03-03T01:22:02.541Z,0.91
2018-03-03T01:23:02.545Z,0.92
2018-03-03T01:24:02.840Z,0.91
2018-03-03T01:25:02.840Z,0.86
2018-03-03T01:26:02.858Z,0.84
2018-03-03T01:27:02.573Z,0.87
2018-03-03T01:28:02.581Z,0.87
2018-03-03T01:29:02.871Z,0.92
2018-03-03T01:30:02.606Z,1.01
2018-03-03T01:31:02.603Z,0.88
2018-03-03T01:32:02.948Z,0.96
2018-03-03T01:33:02.332Z,0.98
2018-03-03T01:34:02.915Z,0.86
2018-03-03T01:35:02.920Z,0.83
2018-03-03T01:36:02.915Z,0.78
2018-03-03T01:37:02.640Z,0.92
2018-03-03T01:38:02.930Z,0.87
2018-03-03T01:39:02.946Z,0.84
2018-03-03T01:40:02.674Z,0.87
2018-03-03T01:41:02.952Z,0.84
2018-03-03T01:42:02.683Z,0.84
2018-03-03T01:43:02.962Z,0.88
2018-03-03T01:44:02.980Z,0.84
2018-03-03T01:45:02.695Z,0.88
2018-03-03T01:46:02.420Z,0.83
2018-03-03T01:47:03.044Z,0.76
2018-03-03T01:48:02.748Z,0.76
2018-03-03T01:49:03.012Z,0.78
2018-03-03T01:50:02.473Z,0.74
2018-03-03T01:51:02.455Z,0.7
2018-03-03T01:52:03.078Z,0.68
2018-03-03T01:53:02.756Z,0.8
2018-03-03T01:54:02.479Z,0.77
2018-03-03T01:55:02.767Z,0.78
2018-03-03T01:56:02.771Z,0.74
2018-03-03T01:57:02.546Z,0.74
2018-03-03T01:58:03.078Z,0.74
2018-03-03T01:59:02.799Z,0.76
2018-03-03T02:00:02.822Z,0.68
2018-03-03T02:01:03.142Z,0.65
2018-03-03T02:02:02.894Z,0.66
2018-03-03T02:03:02.819Z,0.65
2018-03-03T02:04:02.853Z,0.65
2018-03-03T02:05:02.554Z,0.58
2018-03-03T02:06:02.860Z,0.63
2018-03-03T02:07:02.616Z,0.6
2018-03-03T02:08:03.190Z,0.62
2018-03-03T02:09:02.859Z,0.59
2018-03-03T02:10:02.884Z,0.62
2018-03-03T02:11:02.876Z,0.62
2018-03-03T02:12:03.226Z,0.62
2018-03-03T02:13:03.185Z,0.55
2018-03-03T02:14:03.204Z,0.55
2018-03-03T02:15:02.642Z,0.59
2018-03-03T02:16:02.926Z,0.55
2018-03-03T02:17:03.247Z,0.49
2018-03-03T02:18:02.932Z,0.58
2018-03-03T02:19:03.282Z,0.56
2018-03-03T02:20:02.969Z,0.52
2018-03-03T02:21:02.964Z,0.5
2018-03-03T02:22:02.740Z,0.47
2018-03-03T02:23:02.693Z,0.41
2018-03-03T02:24:02.960Z,0.44
2018-03-03T02:25:03.267Z,0.5
2018-03-03T02:26:03.286Z,0.41
2018-03-03T02:27:02.984Z,0.46
2018-03-03T02:28:03.004Z,0.44
2018-03-03T02:29:03.293Z,0.5
2018-03-03T02:30:03.333Z,0.49
2018-03-03T02:31:03.018Z,0.4
2018-03-03T02:32:02.781Z,0.44
2018-03-03T02:33:03.025Z,0.56
2018-03-03T02:34:03.327Z,0.46
2018-03-03T02:35:03.324Z,0.36
2018-03-03T02:36:03.353Z,0.46
2018-03-03T02:37:03.363Z,0.36
2018-03-03T02:38:03.345Z,0.44
2018-03-03T02:39:03.376Z,0.37
2018-03-03T02:40:02.786Z,0.37
2018-03-03T02:41:02.799Z,0.39
2018-03-03T02:42:03.172Z,0.39
2018-03-03T02:43:03.372Z,0.39
2018-03-03T02:44:02.839Z,0.4
2018-03-03T02:45:03.114Z,0.26
2018-03-03T02:46:03.534Z,0.29
2018-03-03T02:47:03.975Z,0.32
2018-03-03T02:48:03.708Z,0.36
2018-03-03T02:49:03.179Z,0.26
2018-03-03T02:50:03.857Z,0.36
2018-03-03T02:51:03.522Z,0.31
2018-03-03T02:52:04.007Z,0.31
2018-03-03T02:53:03.170Z,0.28
2018-03-03T02:54:02.890Z,0.22
2018-03-03T02:55:03.461Z,0.22
2018-03-03T02:56:03.466Z,0.21
2018-03-03T02:57:03.186Z,0.18
2018-03-03T02:58:03.499Z,0.18
2018-03-03T02:59:03.964Z,0.16
2018-03-03T03:00:03.684Z,0.19
2018-03-03T03:01:03.734Z,0.26
2018-03-03T03:02:03.603Z,0.28
2018-03-03T03:03:03.225Z,0.26
2018-03-03T03:04:02.948Z,0.23
2018-03-03T03:05:03.525Z,0.19
2018-03-03T03:06:03.545Z,0.15
2018-03-03T03:07:03.540Z,0.16
2018-03-03T03:08:03.148Z,0.11
2018-03-03T03:09:03.257Z,0.1
2018-03-03T03:10:03.267Z,0.1
2018-03-03T03:11:03.271Z,0.1
2018-03-03T03:12:03.014Z,0.1
2018-03-03T03:13:03.569Z,0.11
2018-03-03T03:14:03.434Z,0.15
2018-03-03T03:15:03.588Z,0.05
2018-03-03T03:16:03.586Z,0.16
2018-03-03T03:17:03.710Z,0.15
2018-03-03T03:18:03.629Z,0.19
2018-03-03T03:19:03.664Z,0.12
2018-03-03T03:20:03.628Z,0.11
2018-03-03T03:21:03.337Z,0.08
2018-03-03T03:22:03.646Z,0.07
2018-03-03T03:23:03.405Z,0.1
2018-03-03T03:24:03.401Z,0.08
2018-03-03T03:25:03.972Z,0.01
2018-03-03T03:26:03.866Z,0.08
2018-03-03T03:27:04.118Z,0.05
2018-03-03T03:28:03.402Z,0.05
2018-03-03T03:29:03.673Z,0.04
2018-03-03T03:30:03.685Z,0.04
2018-03-03T03:31:03.409Z,0.04
2018-03-03T03:32:03.407Z,0.08
2018-03-03T03:33:03.698Z,0.08
2018-03-03T03:34:03.427Z,0.1
2018-03-03T03:35:03.431Z,0.01
2018-03-03T03:36:03.444Z,0.01
2018-03-03T03:37:03.723Z,-0.02
2018-03-03T03:38:03.729Z,0.01
2018-03-03T03:39:03.461Z,-0.03
2018-03-03T03:40:03.463Z,0
2018-03-03T03:41:03.757Z,0
2018-03-03T03:42:03.503Z,-0.08
2018-03-03T03:43:03.768Z,-0.07
2018-03-03T03:44:03.489Z,-0.11
2018-03-03T03:45:03.490Z,-0.03
2018-03-03T03:46:03.522Z,-0.06
2018-03-03T03:47:03.796Z,-0.07
2018-03-03T03:48:03.516Z,-0.14
2018-03-03T03:49:03.517Z,0.04
2018-03-03T03:50:03.536Z,-0.07
2018-03-03T03:51:03.816Z,-0.11
2018-03-03T03:52:03.552Z,-0.13
2018-03-03T03:53:03.541Z,-0.11
2018-03-03T03:54:03.557Z,-0.08
2018-03-03T03:55:03.834Z,-0.07
2018-03-03T03:56:03.846Z,-0.13
2018-03-03T03:57:03.569Z,-0.03
2018-03-03T03:58:03.914Z,-0.06
2018-03-03T03:59:03.865Z,-0.11
2018-03-03T04:00:03.586Z,-0.06
2018-03-03T04:01:03.314Z,-0.1
2018-03-03T04:02:03.664Z,-0.11
2018-03-03T04:03:03.887Z,-0.11
2018-03-03T04:04:03.902Z,-0.08
2018-03-03T04:05:03.623Z,-0.14
2018-03-03T04:06:03.629Z,-0.14
2018-03-03T04:07:03.912Z,-0.17
2018-03-03T04:08:03.637Z,-0.14
2018-03-03T04:09:03.646Z,-0.15
2018-03-03T04:10:03.939Z,-0.11
2018-03-03T04:11:03.660Z,-0.14
2018-03-03T04:12:03.381Z,-0.17
2018-03-03T04:13:03.955Z,-0.11
2018-03-03T04:14:03.960Z,-0.11
2018-03-03T04:15:03.972Z,-0.11
2018-03-03T04:16:03.692Z,-0.15
2018-03-03T04:17:03.975Z,-0.21
2018-03-03T04:18:04.047Z,-0.23
2018-03-03T04:19:03.991Z,-0.21
2018-03-03T04:20:03.727Z,-0.23
2018-03-03T04:21:03.800Z,-0.14
2018-03-03T04:22:03.459Z,-0.18
2018-03-03T04:23:03.735Z,-0.15
2018-03-03T04:24:04.032Z,-0.17
2018-03-03T04:25:04.055Z,-0.21
2018-03-03T04:26:03.754Z,-0.18
2018-03-03T04:27:03.758Z,-0.18
2018-03-03T04:28:03.492Z,-0.2
2018-03-03T04:29:03.769Z,-0.15
2018-03-03T04:30:03.779Z,-0.2
2018-03-03T04:31:04.070Z,-0.23
2018-03-03T04:32:04.077Z,-0.17
2018-03-03T04:33:04.074Z,-0.21
2018-03-03T04:34:04.266Z,-0.14
2018-03-03T04:35:04.091Z,-0.14
2018-03-03T04:36:03.551Z,-0.31
2018-03-03T04:37:03.818Z,-0.2
2018-03-03T04:38:03.826Z,-0.26
2018-03-03T04:39:03.882Z,-0.18
2018-03-03T04:40:04.127Z,-0.17
2018-03-03T04:41:04.126Z,-0.21
2018-03-03T04:42:03.851Z,-0.2
2018-03-03T04:43:03.856Z,-0.31
2018-03-03T04:44:04.042Z,-0.25
2018-03-03T04:45:03.866Z,-0.17
2018-03-03T04:46:04.157Z,-0.18
2018-03-03T04:47:04.165Z,-0.21
2018-03-03T04:48:04.172Z,-0.31
2018-03-03T04:49:03.894Z,-0.32
2018-03-03T04:50:03.899Z,-0.15
2018-03-03T04:51:04.046Z,-0.34
2018-03-03T04:52:03.911Z,-0.17
2018-03-03T04:53:04.203Z,-0.15
2018-03-03T04:54:03.928Z,-0.2
2018-03-03T04:55:03.928Z,-0.21
2018-03-03T04:56:04.220Z,-0.2
2018-03-03T04:57:03.944Z,-0.18
2018-03-03T04:58:03.670Z,-0.18
2018-03-03T04:59:04.238Z,-0.21
2018-03-03T05:00:04.249Z,-0.25
2018-03-03T05:01:03.969Z,-0.26
2018-03-03T05:02:04.258Z,-0.17
2018-03-03T05:03:04.264Z,-0.17
2018-03-03T05:04:03.989Z,-0.2
2018-03-03T05:05:04.015Z,-0.23
2018-03-03T05:06:04.015Z,-0.28
2018-03-03T05:07:04.289Z,-0.31
2018-03-03T05:08:04.290Z,-0.34
2018-03-03T05:09:04.439Z,-0.31
2018-03-03T05:10:04.305Z,-0.31
2018-03-03T05:11:04.323Z,-0.26
2018-03-03T05:12:04.318Z,-0.25
2018-03-03T05:13:04.041Z,-0.32
2018-03-03T05:14:04.327Z,-0.32
2018-03-03T05:15:04.054Z,-0.31
2018-03-03T05:16:04.342Z,-0.26
2018-03-03T05:17:04.353Z,-0.29
2018-03-03T05:18:04.074Z,-0.34
2018-03-03T05:19:04.076Z,-0.25
2018-03-03T05:20:04.365Z,-0.31
2018-03-03T05:21:04.376Z,-0.36
2018-03-03T05:22:04.392Z,-0.43
2018-03-03T05:23:04.431Z,-0.36
2018-03-03T05:24:04.392Z,-0.38
2018-03-03T05:25:04.116Z,-0.35
2018-03-03T05:26:04.121Z,-0.36
2018-03-03T05:27:04.129Z,-0.36
2018-03-03T05:28:04.414Z,-0.28
2018-03-03T05:29:04.138Z,-0.29
2018-03-03T05:30:04.441Z,-0.38
2018-03-03T05:31:04.163Z,-0.35
2018-03-03T05:32:04.444Z,-0.31
2018-03-03T05:33:04.446Z,-0.34
2018-03-03T05:34:03.888Z,-0.35
2018-03-03T05:35:04.182Z,-0.43
2018-03-03T05:36:04.468Z,-0.38
2018-03-03T05:37:04.190Z,-0.35
2018-03-03T05:38:04.195Z,-0.38
2018-03-03T05:39:04.201Z,-0.46
2018-03-03T05:40:04.492Z,-0.36
2018-03-03T05:41:04.495Z,-0.44
2018-03-03T05:42:04.504Z,-0.46
2018-03-03T05:43:04.505Z,-0.41
2018-03-03T05:44:04.514Z,-0.39
2018-03-03T05:45:04.519Z,-0.36
2018-03-03T05:46:04.536Z,-0.43
2018-03-03T05:47:04.535Z,-0.39
2018-03-03T05:48:04.262Z,-0.36
2018-03-03T05:49:04.266Z,-0.32
2018-03-03T05:50:04.268Z,-0.32
2018-03-03T05:51:04.276Z,-0.34
2018-03-03T05:52:04.279Z,-0.31
2018-03-03T05:53:04.005Z,-0.36
2018-03-03T05:54:04.602Z,-0.38
2018-03-03T05:55:04.299Z,-0.43
2018-03-03T05:56:04.584Z,-0.43
2018-03-03T05:57:04.591Z,-0.39
2018-03-03T05:58:04.598Z,-0.36
2018-03-03T05:59:04.041Z,-0.39
2018-03-03T06:00:04.615Z,-0.41
2018-03-03T06:01:04.622Z,-0.39
2018-03-03T06:02:04.342Z,-0.46
2018-03-03T06:03:04.630Z,-0.38
2018-03-03T06:04:04.634Z,-0.39
2018-03-03T06:05:04.356Z,-0.35
2018-03-03T06:06:04.082Z,-0.36
2018-03-03T06:07:04.651Z,-0.35
2018-03-03T06:08:04.655Z,-0.38
2018-03-03T06:09:04.380Z,-0.39
2018-03-03T06:10:04.387Z,-0.49
2018-03-03T06:11:04.110Z,-0.35
2018-03-03T06:12:04.118Z,-0.44
2018-03-03T06:13:04.409Z,-0.39
2018-03-03T06:14:04.754Z,-0.43
2018-03-03T06:15:04.697Z,-0.36
2018-03-03T06:16:04.717Z,-0.36
2018-03-03T06:17:04.432Z,-0.39
2018-03-03T06:18:04.442Z,-0.39
2018-03-03T06:19:04.724Z,-0.36
2018-03-03T06:20:04.780Z,-0.44
2018-03-03T06:21:04.767Z,-0.44
2018-03-03T06:22:04.743Z,-0.43
2018-03-03T06:23:04.472Z,-0.38
2018-03-03T06:24:04.754Z,-0.39
2018-03-03T06:25:04.759Z,-0.41
2018-03-03T06:26:04.770Z,-0.46
2018-03-03T06:27:04.493Z,-0.39
2018-03-03T06:28:04.781Z,-0.36
2018-03-03T06:29:04.784Z,-0.36
2018-03-03T06:30:04.558Z,-0.35
2018-03-03T06:31:04.516Z,-0.36
2018-03-03T06:32:04.803Z,-0.35
2018-03-03T06:33:04.820Z,-0.41
2018-03-03T06:34:04.833Z,-0.38
2018-03-03T06:35:04.589Z,-0.44
2018-03-03T06:36:04.829Z,-0.39
2018-03-03T06:37:04.831Z,-0.36
2018-03-03T06:38:04.841Z,-0.32
2018-03-03T06:39:04.565Z,-0.39
2018-03-03T06:40:04.907Z,-0.35
2018-03-03T06:41:04.856Z,-0.32
2018-03-03T06:42:04.586Z,-0.35
2018-03-03T06:43:04.876Z,-0.28
2018-03-03T06:44:04.879Z,-0.32
2018-03-03T06:45:04.653Z,-0.31
2018-03-03T06:46:04.610Z,-0.34
2018-03-03T06:47:04.904Z,-0.35
2018-03-03T06:48:04.906Z,-0.34
2018-03-03T06:49:04.906Z,-0.36
2018-03-03T06:50:04.994Z,-0.29
2018-03-03T06:51:04.354Z,-0.32
2018-03-03T06:52:04.645Z,-0.38
2018-03-03T06:53:04.942Z,-0.38
2018-03-03T06:54:04.656Z,-0.32
2018-03-03T06:55:05.004Z,-0.29
2018-03-03T06:56:04.953Z,-0.34
2018-03-03T06:57:04.673Z,-0.35
2018-03-03T06:58:04.960Z,-0.34
2018-03-03T06:59:04.683Z,-0.31
2018-03-03T07:00:04.691Z,-0.32
2018-03-03T07:01:04.413Z,-0.25
2018-03-03T07:02:04.988Z,-0.2
2018-03-03T07:03:04.426Z,-0.23
2018-03-03T07:04:05.003Z,-0.13
2018-03-03T07:05:05.058Z,-0.17
2018-03-03T07:06:04.734Z,-0.14
2018-03-03T07:07:05.027Z,-0.13
2018-03-03T07:08:05.020Z,-0.15
2018-03-03T07:09:05.036Z,-0.11
2018-03-03T07:10:04.755Z,-0.1
2018-03-03T07:11:04.474Z,-0.08
2018-03-03T07:12:04.482Z,-0.11
2018-03-03T07:13:04.769Z,-0.13
2018-03-03T07:14:04.785Z,-0.08
2018-03-03T07:15:04.582Z,0
2018-03-03T07:16:05.090Z,-0.06
2018-03-03T07:17:04.800Z,-0.02
2018-03-03T07:18:04.517Z,0.01
2018-03-03T07:19:05.149Z,0.05
2018-03-03T07:20:05.133Z,0.03
2018-03-03T07:21:05.108Z,0.05
2018-03-03T07:22:05.331Z,0.03
2018-03-03T07:23:04.829Z,0.08
2018-03-03T07:24:04.834Z,0.11
2018-03-03T07:25:05.138Z,0.15
2018-03-03T07:26:05.138Z,0.1
2018-03-03T07:27:04.596Z,0.18
2018-03-03T07:28:04.879Z,0.08
2018-03-03T07:29:04.865Z,0.23
2018-03-03T07:30:04.876Z,0.31
2018-03-03T07:31:04.898Z,0.25
2018-03-03T07:32:04.885Z,0.19
2018-03-03T07:33:04.607Z,0.32
2018-03-03T07:34:05.189Z,0.4
2018-03-03T07:35:05.200Z,0.32
2018-03-03T07:36:04.909Z,0.36
2018-03-03T07:37:05.207Z,0.44
2018-03-03T07:38:04.921Z,0.36
2018-03-03T07:39:04.927Z,0.5
2018-03-03T07:40:04.983Z,0.47
2018-03-03T07:41:05.220Z,0.41
2018-03-03T07:42:04.958Z,0.46
2018-03-03T07:43:04.668Z,0.56
2018-03-03T07:44:05.241Z,0.47
2018-03-03T07:45:05.014Z,0.56
2018-03-03T07:46:04.689Z,0.59
2018-03-03T07:47:04.977Z,0.6
2018-03-03T07:48:04.988Z,0.63
2018-03-03T07:49:05.274Z,0.59
2018-03-03T07:50:05.080Z,0.66
2018-03-03T07:51:05.000Z,0.65
2018-03-03T07:52:05.010Z,0.7
2018-03-03T07:53:05.022Z,0.7
2018-03-03T07:54:05.303Z,0.74
2018-03-03T07:55:05.029Z,0.68
2018-03-03T07:56:05.037Z,0.7
2018-03-03T07:57:05.323Z,0.77
2018-03-03T07:58:05.345Z,0.87
2018-03-03T07:59:05.339Z,0.77
2018-03-03T08:00:05.362Z,0.88
2018-03-03T08:01:05.062Z,0.83
2018-03-03T08:02:05.355Z,0.84
2018-03-03T08:03:05.075Z,0.88
2018-03-03T08:04:05.143Z,0.88
2018-03-03T08:05:05.142Z,1.01
2018-03-03T08:06:04.834Z,1.01
2018-03-03T08:07:05.398Z,0.96
2018-03-03T08:08:05.125Z,0.99
2018-03-03T08:09:05.197Z,1.04
2018-03-03T08:10:05.153Z,1.01
2018-03-03T08:11:04.847Z,1.04
2018-03-03T08:12:04.876Z,1.08
2018-03-03T08:13:05.140Z,1.12
2018-03-03T08:14:05.166Z,1.14
2018-03-03T08:15:05.156Z,1.08
2018-03-03T08:16:05.445Z,1.19
2018-03-03T08:17:05.170Z,1.19
2018-03-03T08:18:05.174Z,1.19
2018-03-03T08:19:05.204Z,1.24
2018-03-03T08:20:04.943Z,1.22
2018-03-03T08:21:05.531Z,1.23
2018-03-03T08:22:05.604Z,1.34
2018-03-03T08:23:05.490Z,1.44
2018-03-03T08:24:04.930Z,1.34
2018-03-03T08:25:05.506Z,1.41
2018-03-03T08:26:05.296Z,1.48
2018-03-03T08:27:05.392Z,1.5
2018-03-03T08:28:05.749Z,1.56
2018-03-03T08:29:04.965Z,1.48
2018-03-03T08:30:04.982Z,1.56
2018-03-03T08:31:05.310Z,1.55
2018-03-03T08:32:05.265Z,1.58
2018-03-03T08:33:04.998Z,1.58
2018-03-03T08:34:05.293Z,1.59
2018-03-03T08:35:05.004Z,1.67
2018-03-03T08:36:05.416Z,1.74
2018-03-03T08:37:05.298Z,1.63
2018-03-03T08:38:05.319Z,1.67
2018-03-03T08:39:05.646Z,1.73
2018-03-03T08:40:05.328Z,1.7
2018-03-03T08:41:05.627Z,1.71
2018-03-03T08:42:05.061Z,1.71
2018-03-03T08:43:05.632Z,1.81
2018-03-03T08:44:05.368Z,1.87
2018-03-03T08:45:05.360Z,1.81
2018-03-03T08:46:05.448Z,1.89
2018-03-03T08:47:05.371Z,1.97
2018-03-03T08:48:05.373Z,2
2018-03-03T08:49:05.664Z,2
2018-03-03T08:50:05.412Z,2.06
2018-03-03T08:51:05.395Z,2.1
2018-03-03T08:52:05.416Z,2.1
2018-03-03T08:53:05.692Z,2.07
2018-03-03T08:54:05.139Z,2.15
2018-03-03T08:55:05.709Z,2.14
2018-03-03T08:56:05.207Z,2.18
2018-03-03T08:57:05.437Z,2.13
2018-03-03T08:58:05.196Z,2.13
2018-03-03T08:59:05.170Z,2.17
2018-03-03T09:00:05.762Z,2.22
2018-03-03T09:01:05.485Z,2.14
2018-03-03T09:02:05.484Z,2.28
2018-03-03T09:03:05.490Z,2.15
2018-03-03T09:04:05.499Z,2.24
2018-03-03T09:05:05.209Z,2.32
2018-03-03T09:06:05.802Z,2.25
2018-03-03T09:07:05.506Z,2.29
2018-03-03T09:08:05.524Z,2.31
2018-03-03T09:09:05.522Z,2.35
2018-03-03T09:10:05.857Z,2.32
2018-03-03T09:11:05.534Z,2.29
2018-03-03T09:12:05.570Z,2.36
2018-03-03T09:13:05.553Z,2.38
2018-03-03T09:14:05.849Z,2.38
2018-03-03T09:15:05.280Z,2.36
2018-03-03T09:16:05.606Z,2.35
2018-03-03T09:17:05.581Z,2.49
2018-03-03T09:18:05.594Z,2.36
2018-03-03T09:19:05.712Z,2.39
2018-03-03T09:20:05.620Z,2.36
2018-03-03T09:21:05.607Z,2.46
2018-03-03T09:22:05.628Z,2.47
2018-03-03T09:23:05.632Z,2.5
2018-03-03T09:24:05.348Z,2.44
2018-03-03T09:25:05.920Z,2.49
2018-03-03T09:26:05.665Z,2.5
2018-03-03T09:27:05.369Z,2.47
2018-03-03T09:28:05.825Z,2.47
2018-03-03T09:29:05.950Z,2.6
2018-03-03T09:30:05.697Z,2.53
2018-03-03T09:31:05.966Z,2.57
2018-03-03T09:32:05.969Z,2.68
2018-03-03T09:33:05.695Z,2.67
2018-03-03T09:34:05.995Z,2.64
2018-03-03T09:35:05.725Z,2.62
2018-03-03T09:36:05.512Z,2.71
2018-03-03T09:37:06.013Z,2.71
2018-03-03T09:38:05.740Z,2.72
2018-03-03T09:39:05.740Z,2.77
2018-03-03T09:40:06.030Z,2.82
2018-03-03T09:41:05.754Z,2.82
2018-03-03T09:42:06.072Z,2.79
2018-03-03T09:43:05.778Z,2.87
2018-03-03T09:44:06.073Z,2.79
2018-03-03T09:45:05.503Z,2.85
2018-03-03T09:46:05.560Z,2.87
2018-03-03T09:47:05.801Z,2.95
2018-03-03T09:48:05.818Z,2.9
2018-03-03T09:49:06.099Z,3
2018-03-03T09:50:05.840Z,3.01
2018-03-03T09:51:05.833Z,3.03
2018-03-03T09:52:05.929Z,3.04
2018-03-03T09:53:05.850Z,3.11
2018-03-03T09:54:06.143Z,3.07
2018-03-03T09:55:06.145Z,3.03
2018-03-03T09:56:06.167Z,3.18
2018-03-03T09:57:05.928Z,3.07
2018-03-03T09:58:05.911Z,3.07
2018-03-03T09:59:05.896Z,3.07
2018-03-03T10:00:05.919Z,3.1
2018-03-03T10:01:05.912Z,3.18
2018-03-03T10:02:11.520Z,3.13
2018-03-03T10:03:05.644Z,3.21
2018-03-03T10:04:06.227Z,3.21
2018-03-03T10:05:06.225Z,3.16
2018-03-03T10:06:05.690Z,3.21
2018-03-03T10:07:06.010Z,3.22
2018-03-03T10:08:06.255Z,3.32
2018-03-03T10:09:05.690Z,3.28
2018-03-03T10:10:06.270Z,3.25
2018-03-03T10:11:05.996Z,3.32
2018-03-03T10:12:05.765Z,3.31
2018-03-03T10:13:06.005Z,3.28
2018-03-03T10:14:06.319Z,3.22
2018-03-03T10:15:06.054Z,3.44
2018-03-03T10:16:05.755Z,3.41
2018-03-03T10:17:06.332Z,3.45
2018-03-03T10:18:06.051Z,3.48
2018-03-03T10:19:06.338Z,3.4
2018-03-03T10:20:05.785Z,3.58
2018-03-03T10:21:06.075Z,3.48
2018-03-03T10:22:06.176Z,3.56
2018-03-03T10:23:06.091Z,3.63
2018-03-03T10:24:06.380Z,3.62
2018-03-03T10:25:06.388Z,3.65
2018-03-03T10:26:06.112Z,3.65
2018-03-03T10:27:05.835Z,3.7
2018-03-03T10:28:06.130Z,3.68
2018-03-03T10:29:06.135Z,3.74
2018-03-03T10:30:06.431Z,3.7
2018-03-03T10:31:06.200Z,3.8
2018-03-03T10:32:06.444Z,3.81
2018-03-03T10:33:06.627Z,3.78
2018-03-03T10:34:06.180Z,3.81
2018-03-03T10:35:06.469Z,3.83
2018-03-03T10:36:06.194Z,3.77
2018-03-03T10:37:06.201Z,3.87
2018-03-03T10:38:06.493Z,3.87
2018-03-03T10:39:06.499Z,3.87
2018-03-03T10:40:06.229Z,3.91
2018-03-03T10:41:06.237Z,4.04
2018-03-03T10:42:06.526Z,4.01
2018-03-03T10:43:06.256Z,4.01
2018-03-03T10:44:06.272Z,4.06
2018-03-03T10:45:06.298Z,4.04
2018-03-03T10:46:06.283Z,4.08
2018-03-03T10:47:06.568Z,4.16
2018-03-03T10:48:06.295Z,4.19
2018-03-03T10:49:06.585Z,4.2
2018-03-03T10:50:06.595Z,4.2
2018-03-03T10:51:06.327Z,4.24
2018-03-03T10:52:06.610Z,4.2
2018-03-03T10:53:06.053Z,4.16
2018-03-03T10:54:06.627Z,4.16
2018-03-03T10:55:06.355Z,4.23
2018-03-03T10:56:06.363Z,4.28
2018-03-03T10:57:06.380Z,4.32
2018-03-03T10:58:06.380Z,4.19
2018-03-03T10:59:06.387Z,4.3
2018-03-03T11:00:06.396Z,4.24
2018-03-03T11:01:06.689Z,4.34
2018-03-03T11:02:06.703Z,4.3
2018-03-03T11:03:06.703Z,4.41
2018-03-03T11:04:06.448Z,4.28
2018-03-03T11:05:06.158Z,4.32
2018-03-03T11:06:06.446Z,4.41
2018-03-03T11:07:06.490Z,4.5
2018-03-03T11:08:06.464Z,4.5
2018-03-03T11:09:06.189Z,4.44
2018-03-03T11:10:06.199Z,4.55
2018-03-03T11:11:06.773Z,4.56
2018-03-03T11:12:06.502Z,4.58
2018-03-03T11:13:06.797Z,4.6
2018-03-03T11:14:06.234Z,4.6
2018-03-03T11:15:06.523Z,4.58
2018-03-03T11:16:06.821Z,4.67
2018-03-03T11:17:06.290Z,4.73
2018-03-03T11:18:06.554Z,4.71
2018-03-03T11:19:06.846Z,4.67
2018-03-03T11:20:06.581Z,4.74
2018-03-03T11:21:06.868Z,4.8
2018-03-03T11:22:06.604Z,4.77
2018-03-03T11:23:06.318Z,4.82
2018-03-03T11:24:06.324Z,4.87
2018-03-03T11:25:06.338Z,4.86
2018-03-03T11:26:06.629Z,4.82
2018-03-03T11:27:06.939Z,4.9
2018-03-03T11:28:06.935Z,4.9
2018-03-03T11:29:06.937Z,4.93
2018-03-03T11:30:06.376Z,4.93
2018-03-03T11:31:06.672Z,5.05
2018-03-03T11:32:06.682Z,5.05
2018-03-03T11:33:07.035Z,4.96
2018-03-03T11:34:06.702Z,4.99
2018-03-03T11:35:06.989Z,5
2018-03-03T11:36:06.997Z,4.99
2018-03-03T11:37:07.008Z,5.07
2018-03-03T11:38:06.449Z,4.94
2018-03-03T11:39:06.744Z,5.05
2018-03-03T11:40:07.034Z,4.99
2018-03-03T11:41:07.048Z,5.07
2018-03-03T11:42:07.054Z,5.1
2018-03-03T11:43:06.777Z,5.04
2018-03-03T11:44:07.069Z,5.05
2018-03-03T11:45:06.802Z,5.1
2018-03-03T11:46:06.805Z,5.07
2018-03-03T11:47:06.532Z,5.11
2018-03-03T11:48:07.162Z,5.1
2018-03-03T11:49:06.840Z,5.1
2018-03-03T11:50:07.131Z,5.08
2018-03-03T11:51:07.137Z,5.07
2018-03-03T11:52:06.860Z,5.07
2018-03-03T11:53:07.287Z,5.07
2018-03-03T11:54:07.165Z,5.1
2018-03-03T11:55:06.608Z,5.1
2018-03-03T11:56:07.185Z,5.08
2018-03-03T11:57:07.208Z,5.07
2018-03-03T11:58:06.967Z,5.11
2018-03-03T11:59:06.927Z,5.15
2018-03-03T12:00:06.942Z,5.17
2018-03-03T12:01:07.233Z,5.14
2018-03-03T12:02:07.242Z,5.07
2018-03-03T12:03:06.983Z,5.14
2018-03-03T12:04:06.695Z,5.08
2018-03-03T12:05:07.273Z,5.12
2018-03-03T12:06:07.278Z,5.1
2018-03-03T12:07:07.007Z,5.07
2018-03-03T12:08:06.730Z,5.12
2018-03-03T12:09:06.740Z,5.12
2018-03-03T12:10:07.318Z,5.11
2018-03-03T12:11:07.043Z,5.18
2018-03-03T12:12:07.051Z,5.14
2018-03-03T12:13:07.064Z,5.17
2018-03-03T12:14:07.080Z,5.21
2018-03-03T12:15:07.083Z,5.18
2018-03-03T12:16:07.087Z,5.21
2018-03-03T12:17:07.097Z,5.21
2018-03-03T12:18:07.441Z,5.23
2018-03-03T12:19:07.173Z,5.23
2018-03-03T12:20:07.413Z,5.15
2018-03-03T12:21:07.137Z,5.2
2018-03-03T12:22:07.433Z,5.23
2018-03-03T12:23:07.158Z,5.32
2018-03-03T12:24:07.170Z,5.29
2018-03-03T12:25:07.456Z,5.32
2018-03-03T12:26:07.468Z,5.33
2018-03-03T12:27:07.194Z,5.38
2018-03-03T12:28:07.490Z,5.36
2018-03-03T12:29:07.212Z,5.41
2018-03-03T12:30:07.226Z,5.44
2018-03-03T12:31:07.234Z,5.35
2018-03-03T12:32:07.539Z,5.43
2018-03-03T12:33:07.539Z,5.43
2018-03-03T12:34:07.601Z,5.41
2018-03-03T12:35:06.991Z,5.44
2018-03-03T12:36:07.571Z,5.44
2018-03-03T12:37:07.290Z,5.46
2018-03-03T12:38:07.299Z,5.48
2018-03-03T12:39:07.311Z,5.5
2018-03-03T12:40:07.607Z,5.51
2018-03-03T12:41:07.334Z,5.5
2018-03-03T12:42:07.636Z,5.53
2018-03-03T12:43:07.350Z,5.61
2018-03-03T12:44:07.359Z,5.59
2018-03-03T12:45:07.384Z,5.72
2018-03-03T12:46:07.385Z,5.69
2018-03-03T12:47:07.671Z,5.62
2018-03-03T12:48:07.399Z,5.71
2018-03-03T12:49:07.417Z,5.65
2018-03-03T12:50:07.135Z,5.66
2018-03-03T12:51:07.717Z,5.66
2018-03-03T12:52:07.440Z,5.72
2018-03-03T12:53:07.728Z,5.62
2018-03-03T12:54:07.457Z,5.73
2018-03-03T12:55:07.200Z,5.65
2018-03-03T12:56:07.480Z,5.65
2018-03-03T12:57:07.767Z,5.66
2018-03-03T12:58:07.787Z,5.66
2018-03-03T12:59:07.843Z,5.61
2018-03-03T13:00:07.520Z,5.61
2018-03-03T13:01:07.528Z,5.72
2018-03-03T13:02:07.833Z,5.68
2018-03-03T13:03:07.548Z,5.64
2018-03-03T13:04:07.560Z,5.68
2018-03-03T13:05:07.566Z,5.51
2018-03-03T13:06:07.578Z,5.61
2018-03-03T13:07:07.303Z,5.51
2018-03-03T13:08:07.311Z,5.53
2018-03-03T13:09:07.614Z,5.53
2018-03-03T13:10:07.618Z,5.59
2018-03-03T13:11:07.905Z,5.56
2018-03-03T13:12:07.636Z,5.57
2018-03-03T13:13:07.644Z,5.56
2018-03-03T13:14:07.710Z,5.68